createdAt,value
2023-03-07T00:03:08.269Z,19.20
2023-03-07T00:07:11.074Z,15.90
2023-03-07T00:11:10.994Z,11.70
2023-03-07T00:15:14.314Z,12.80
2023-03-07T00:19:13.995Z,16.30
2023-03-07T00:23:17.829Z,12.70
2023-03-07T00:27:17.187Z,10.30
2023-03-07T00:31:23.389Z,13.10
2023-03-07T00:35:23.092Z,8.90
2023-03-07T00:39:26.236Z,16.10
2023-03-07T00:43:27.211Z,22.10
2023-03-07T00:47:30.116Z,16.80
2023-03-07T00:51:30.220Z,19.30
2023-03-07T00:55:33.070Z,17.30
2023-03-07T00:59:32.136Z,19.90
2023-03-07T01:03:36.488Z,18.60
2023-03-07T01:07:30.276Z,23.90
2023-03-07T01:11:29.493Z,10.90
2023-03-07T01:15:31.304Z,11.40
2023-03-07T01:19:28.454Z,12.90
2023-03-07T01:23:28.964Z,10.60
2023-03-07T01:27:26.511Z,16.60
2023-03-07T01:31:26.942Z,13.40
2023-03-07T01:35:25.058Z,15.30
2023-03-07T01:39:27.071Z,17.80
2023-03-07T01:43:20.045Z,20.40
2023-03-07T01:47:07.005Z,14.60
2023-03-07T01:51:22.521Z,12.50
2023-03-07T01:55:24.211Z,16.70
2023-03-07T01:59:24.656Z,20.90
2023-03-07T02:03:29.157Z,16.00
2023-03-07T02:07:26.750Z,26.10
2023-03-07T02:11:27.489Z,20.10
2023-03-07T02:15:24.483Z,19.30
2023-03-07T02:19:26.512Z,22.30
2023-03-07T02:23:25.202Z,27.30
2023-03-07T02:27:11.395Z,18.00
2023-03-07T02:30:58.469Z,20.30
2023-03-07T02:34:46.922Z,21.10
2023-03-07T02:38:37.669Z,24.20
2023-03-07T02:42:36.408Z,18.50
2023-03-07T02:46:34.854Z,17.80
2023-03-07T02:50:35.716Z,19.30
2023-03-07T02:54:32.299Z,19.50
2023-03-07T02:58:36.918Z,26.30
2023-03-07T03:02:33.825Z,16.40
2023-03-07T03:06:34.239Z,21.70
2023-03-07T03:10:31.397Z,22.60
2023-03-07T03:14:33.016Z,20.50
2023-03-07T03:18:25.257Z,19.30
2023-03-07T03:22:10.953Z,24.30
2023-03-07T03:25:59.147Z,18.60
2023-03-07T03:29:46.808Z,21.50
2023-03-07T03:33:35.914Z,20.90
2023-03-07T03:37:21.991Z,21.20
2023-03-07T03:41:19.574Z,20.60
2023-03-07T03:48:48.262Z,16.00
2023-03-07T03:52:41.488Z,21.50
2023-03-07T03:56:39.031Z,20.70
2023-03-07T04:00:39.759Z,17.90
2023-03-07T04:04:36.610Z,16.50
2023-03-07T04:08:35.493Z,16.20
2023-03-07T04:12:38.865Z,14.70
2023-03-07T04:16:35.701Z,17.00
2023-03-07T04:20:36.303Z,14.00
2023-03-07T04:24:33.625Z,16.30
2023-03-07T04:28:20.416Z,17.00
2023-03-07T04:32:07.688Z,14.40
2023-03-07T04:35:54.119Z,14.30
2023-03-07T04:39:40.990Z,13.50
2023-03-07T04:43:30.315Z,14.30
2023-03-07T04:47:16.519Z,12.30
2023-03-07T04:51:10.737Z,14.30
2023-03-07T04:55:06.634Z,17.20
2023-03-07T04:59:07.777Z,14.40
2023-03-07T05:03:10.574Z,14.00
2023-03-07T05:07:19.666Z,16.80
2023-03-07T05:11:16.962Z,11.30
2023-03-07T05:15:17.617Z,11.30
2023-03-07T05:19:15.133Z,16.80
2023-03-07T05:23:35.858Z,19.40
2023-03-07T05:27:32.840Z,11.60
2023-03-07T05:31:35.652Z,18.60
2023-03-07T05:35:32.490Z,14.50
2023-03-07T05:39:34.418Z,15.60
2023-03-07T05:43:32.047Z,17.90
2023-03-07T05:47:34.013Z,16.30
2023-03-07T05:51:30.958Z,13.30
2023-03-07T05:55:31.632Z,15.40
2023-03-07T05:59:30.197Z,15.70
2023-03-07T06:03:30.727Z,15.00
2023-03-07T06:07:28.292Z,20.00
2023-03-07T06:11:30.119Z,16.80
2023-03-07T06:15:29.238Z,14.70
2023-03-07T06:19:36.034Z,14.70
2023-03-07T06:23:33.852Z,19.80
2023-03-07T06:27:34.901Z,13.90
2023-03-07T06:31:31.983Z,15.00
2023-03-07T06:35:32.863Z,15.20
2023-03-07T06:39:31.378Z,15.20
2023-03-07T06:43:31.975Z,19.50
2023-03-07T06:47:32.415Z,17.40
2023-03-07T06:51:29.828Z,14.10
2023-03-07T06:55:35.174Z,13.30
2023-03-07T06:59:33.019Z,15.70
2023-03-07T07:03:31.244Z,16.00
2023-03-07T07:07:33.932Z,15.80
2023-03-07T07:11:31.010Z,15.10
2023-03-07T07:15:33.661Z,16.80
2023-03-07T07:19:30.839Z,16.00
2023-03-07T07:23:31.793Z,13.20
2023-03-07T07:27:29.044Z,17.40
2023-03-07T07:31:29.906Z,18.50
2023-03-07T07:35:27.261Z,14.70
2023-03-07T07:39:31.098Z,17.40
2023-03-07T07:43:28.106Z,15.10
2023-03-07T07:47:38.043Z,15.70
2023-03-07T07:51:34.670Z,15.70
2023-03-07T07:55:35.501Z,16.40
2023-03-07T07:59:35.783Z,20.00
2023-03-07T08:03:36.246Z,17.60
2023-03-07T08:07:32.911Z,16.90
2023-03-07T08:11:33.252Z,20.40
2023-03-07T08:15:30.852Z,17.30
2023-03-07T08:19:31.429Z,17.60
2023-03-07T08:23:28.053Z,14.60
2023-03-07T08:27:26.381Z,15.40
2023-03-07T08:31:27.875Z,14.40
2023-03-07T08:35:25.871Z,18.30
2023-03-07T08:39:23.956Z,15.10
2023-03-07T08:43:23.586Z,17.20
2023-03-07T08:47:20.279Z,16.40
2023-03-07T08:51:20.969Z,18.00
2023-03-07T08:55:18.023Z,14.50
2023-03-07T09:00:13.295Z,18.80
2023-03-07T09:04:10.925Z,17.80
2023-03-07T09:08:11.438Z,15.60
2023-03-07T09:12:09.427Z,17.50
2023-03-07T09:16:09.466Z,14.30
2023-03-07T09:20:05.451Z,19.70
2023-03-07T09:24:04.843Z,15.50
2023-03-07T09:28:05.736Z,19.90
2023-03-07T09:32:02.888Z,19.60
2023-03-07T09:36:06.502Z,17.10
2023-03-07T09:40:02.844Z,18.90
2023-03-07T09:44:03.095Z,20.50
2023-03-07T09:48:24.654Z,18.00
2023-03-07T09:52:25.142Z,20.10
2023-03-07T09:56:23.501Z,16.80
2023-03-07T10:00:23.832Z,17.70
2023-03-07T10:04:20.781Z,17.60
2023-03-07T10:08:20.850Z,18.10
2023-03-07T10:12:20.950Z,18.20
2023-03-07T10:16:19.132Z,16.50
2023-03-07T10:20:19.636Z,17.60
2023-03-07T10:24:17.079Z,16.90
2023-03-07T10:28:17.675Z,15.90
2023-03-07T10:32:14.770Z,15.30
2023-03-07T10:36:16.009Z,21.50
2023-03-07T10:40:12.535Z,15.70
2023-03-07T10:44:13.459Z,18.60
2023-03-07T10:48:11.080Z,18.90
2023-03-07T10:52:12.562Z,16.50
2023-03-07T10:56:08.504Z,18.00
2023-03-07T11:00:09.181Z,17.20
2023-03-07T11:04:05.733Z,17.20
2023-03-07T11:08:10.095Z,19.20
2023-03-07T11:15:47.019Z,18.50
2023-03-07T11:19:52.128Z,21.00
2023-03-07T11:23:49.620Z,23.20
2023-03-07T11:27:50.162Z,19.00
2023-03-07T11:31:46.778Z,21.60
2023-03-07T11:35:48.172Z,23.90
2023-03-07T11:39:48.525Z,25.70
2023-03-07T11:43:46.622Z,57.00
2023-03-07T11:47:46.927Z,133.40
2023-03-07T11:51:40.758Z,1999.90
2023-03-07T11:55:41.365Z,1999.90
2023-03-07T11:59:33.541Z,1999.90
2023-03-07T12:03:33.848Z,1999.90
2023-03-07T12:07:32.339Z,1999.90
2023-03-07T12:11:32.988Z,1999.90
2023-03-07T12:15:29.748Z,111.10
2023-03-07T12:19:32.631Z,56.60
2023-03-07T12:23:29.760Z,175.50
2023-03-07T12:27:30.202Z,133.90
2023-03-07T12:31:27.976Z,37.20
2023-03-07T12:35:28.219Z,25.50
2023-03-07T12:39:23.014Z,1999.90
2023-03-07T12:43:23.487Z,1999.90
2023-03-07T12:47:19.802Z,1999.90
2023-03-07T12:51:19.851Z,22.40
2023-03-07T12:55:16.580Z,1999.90
2023-03-07T12:59:16.819Z,1999.90
2023-03-07T13:03:12.955Z,1999.90
2023-03-07T13:07:13.585Z,1210.10
2023-03-07T13:11:10.963Z,354.60
2023-03-07T13:15:11.205Z,38.70
2023-03-07T13:19:06.502Z,1999.90
2023-03-07T13:26:23.505Z,1999.90
2023-03-07T13:30:10.024Z,1999.90
2023-03-07T13:33:56.392Z,1999.90
2023-03-07T13:37:42.383Z,1999.90
2023-03-07T13:41:28.425Z,1999.90
2023-03-07T13:45:14.864Z,1999.90
2023-03-07T13:49:01.008Z,1999.90
2023-03-07T13:52:54.148Z,1999.90
2023-03-07T13:56:47.062Z,1999.90
2023-03-07T14:00:43.916Z,1999.90
2023-03-07T14:04:44.735Z,1999.90
2023-03-07T14:08:40.738Z,1999.90
2023-03-07T14:12:40.951Z,1999.90
2023-03-07T14:16:38.203Z,1999.90
2023-03-07T14:20:38.785Z,1999.90
2023-03-07T14:24:34.774Z,1999.90
2023-03-07T14:28:35.923Z,1999.90
2023-03-07T14:32:22.113Z,1999.90
2023-03-07T14:36:08.611Z,1999.90
2023-03-07T14:39:55.106Z,1999.90
2023-03-07T14:43:41.211Z,1999.90
2023-03-07T14:47:27.605Z,1999.90
2023-03-07T14:51:13.759Z,1999.90
2023-03-07T14:55:06.049Z,1999.90
2023-03-07T14:59:05.198Z,1999.90
2023-03-07T15:03:05.530Z,1999.90
2023-03-07T15:07:01.947Z,1999.90
2023-03-07T15:11:01.816Z,1999.90
2023-03-07T15:14:58.154Z,1999.90
2023-03-07T15:18:58.481Z,1999.90
2023-03-07T15:22:44.408Z,1999.90
2023-03-07T15:26:30.228Z,1999.90
2023-03-07T15:30:16.549Z,1999.90
2023-03-07T15:34:02.458Z,1999.90
2023-03-07T15:37:48.492Z,1999.90
2023-03-07T15:41:40.529Z,1999.90
2023-03-07T15:45:34.714Z,1999.90
2023-03-07T15:49:37.649Z,1999.90
2023-03-07T15:53:34.461Z,1999.90
2023-03-07T15:57:34.555Z,178.20
2023-03-07T16:01:31.215Z,25.70
2023-03-07T16:05:31.661Z,1999.90
2023-03-07T16:09:28.079Z,31.00
2023-03-07T16:13:28.009Z,29.90
2023-03-07T16:17:25.053Z,103.90
2023-03-07T16:21:11.444Z,167.10
2023-03-07T16:24:57.464Z,135.70
2023-03-07T16:28:44.205Z,29.40
2023-03-07T16:32:31.183Z,565.70
2023-03-07T16:36:17.392Z,557.10
2023-03-07T16:40:03.516Z,1999.90
2023-03-07T16:43:59.256Z,106.80
2023-03-07T16:48:00.366Z,361.80
2023-03-07T16:52:05.653Z,77.70
2023-03-07T16:56:07.118Z,1340.40
2023-03-07T17:00:03.313Z,411.70
2023-03-07T17:04:00.221Z,31.50
2023-03-07T17:08:01.461Z,30.20
2023-03-07T17:11:58.453Z,34.90
2023-03-07T17:15:58.709Z,27.90
2023-03-07T17:19:55.610Z,46.30
2023-03-07T17:23:56.919Z,45.40
2023-03-07T17:27:54.916Z,24.50
2023-03-07T17:31:55.272Z,29.80
2023-03-07T17:35:53.709Z,30.40
2023-03-07T17:39:54.200Z,21.50
2023-03-07T17:43:50.216Z,23.20
2023-03-07T17:47:51.000Z,22.50
2023-03-07T17:51:48.456Z,24.40
2023-03-07T17:55:48.602Z,24.70
2023-03-07T17:59:45.152Z,29.70
2023-03-07T18:03:45.297Z,25.70
2023-03-07T18:07:42.522Z,20.40
2023-03-07T18:11:42.914Z,16.70
2023-03-07T18:15:40.677Z,17.70
2023-03-07T18:19:40.876Z,17.40
2023-03-07T18:23:37.525Z,18.90
2023-03-07T18:27:34.338Z,31.90
2023-03-07T18:31:36.143Z,21.60
2023-03-07T18:35:34.782Z,17.10
2023-03-07T18:39:33.659Z,19.20
2023-03-07T18:43:33.542Z,22.20
2023-03-07T18:47:33.640Z,16.90
2023-03-07T18:51:34.514Z,21.70
2023-03-07T18:55:31.852Z,17.50
2023-03-07T18:59:33.414Z,19.90
2023-03-07T19:03:30.721Z,21.80
2023-03-07T19:07:31.080Z,19.20
2023-03-07T19:11:29.688Z,17.10
2023-03-07T19:15:26.766Z,18.20
2023-03-07T19:19:27.375Z,12.80
2023-03-07T19:23:24.658Z,18.30
2023-03-07T19:27:27.011Z,20.20
2023-03-07T19:31:23.581Z,17.40
2023-03-07T19:35:24.427Z,21.40
2023-03-07T19:39:21.390Z,17.00
2023-03-07T19:43:22.279Z,18.00
2023-03-07T19:47:18.356Z,22.40
2023-03-07T19:51:14.399Z,26.50
2023-03-07T19:55:14.700Z,22.20
2023-03-07T19:59:11.565Z,20.10
2023-03-07T20:03:11.930Z,30.30
2023-03-07T20:07:08.959Z,67.90
2023-03-07T20:11:09.859Z,48.90
2023-03-07T20:15:07.593Z,32.70
2023-03-07T20:19:09.174Z,27.00
2023-03-07T20:23:07.983Z,30.30
2023-03-07T20:27:08.546Z,31.40
2023-03-07T20:31:05.707Z,53.60
2023-03-07T20:35:07.483Z,25.00
2023-03-07T20:39:04.459Z,23.80
2023-03-07T20:43:05.270Z,21.20
2023-03-07T20:47:01.496Z,25.60
2023-03-07T20:51:01.690Z,29.20
2023-03-07T20:54:58.928Z,25.30
2023-03-07T20:58:59.848Z,22.40
2023-03-07T21:03:06.022Z,26.80
2023-03-07T21:07:10.707Z,20.40
2023-03-07T21:11:09.761Z,24.30
2023-03-07T21:15:13.278Z,31.10
2023-03-07T21:19:15.706Z,27.00
2023-03-07T21:23:18.802Z,35.00
2023-03-07T21:27:19.652Z,25.60
2023-03-07T21:31:22.736Z,35.60
2023-03-07T21:35:23.742Z,43.70
2023-03-07T21:39:26.811Z,45.60
2023-03-07T21:43:26.736Z,66.90
2023-03-07T21:47:30.669Z,32.20
2023-03-07T21:51:31.809Z,24.80
2023-03-07T21:55:34.922Z,24.20
2023-03-07T21:59:34.621Z,18.80
2023-03-07T22:03:37.924Z,33.40
2023-03-07T22:07:36.907Z,19.10
2023-03-07T22:11:39.722Z,39.10
2023-03-07T22:15:40.760Z,32.00
2023-03-07T22:19:46.309Z,28.70
2023-03-07T22:23:44.856Z,28.50
2023-03-07T22:27:48.681Z,23.40
2023-03-07T22:31:48.858Z,32.10
2023-03-07T22:35:51.757Z,37.80
2023-03-07T22:39:53.780Z,28.00
2023-03-07T22:43:57.422Z,28.00
2023-03-07T22:48:00.432Z,26.80
2023-03-07T22:51:59.001Z,36.50
2023-03-07T22:56:01.885Z,98.40
2023-03-07T23:00:08.859Z,66.10
2023-03-07T23:04:12.378Z,38.40
2023-03-07T23:11:56.997Z,39.30
2023-03-07T23:15:57.630Z,37.30
2023-03-07T23:19:57.947Z,35.10
2023-03-07T23:23:58.517Z,39.70
2023-03-07T23:27:57.034Z,38.90
2023-03-07T23:32:00.219Z,50.40
2023-03-07T23:35:57.400Z,57.40
2023-03-07T23:39:57.859Z,41.90
2023-03-07T23:43:59.113Z,68.40
2023-03-07T23:47:56.949Z,58.60
2023-03-07T23:51:58.014Z,58.90
2023-03-07T23:55:55.921Z,104.80
2023-03-07T23:59:56.949Z,39.60
